createdAt,value
2022-08-19T00:01:59.267Z,25.63
2022-08-19T00:04:30.323Z,29.95
2022-08-19T00:06:56.967Z,26.35
2022-08-19T00:09:25.284Z,28.02
2022-08-19T00:11:53.187Z,26.60
2022-08-19T00:14:21.671Z,28.55
2022-08-19T00:16:49.190Z,25.98
2022-08-19T00:19:17.062Z,27.58
2022-08-19T00:21:44.151Z,27.30
2022-08-19T00:24:12.729Z,28.20
2022-08-19T00:26:39.839Z,26.80
2022-08-19T00:29:12.555Z,23.33
2022-08-19T00:31:39.255Z,25.88
2022-08-19T00:34:05.708Z,24.05
2022-08-19T00:36:33.706Z,25.38
2022-08-19T00:39:00.315Z,28.50
2022-08-19T00:41:27.319Z,25.52
2022-08-19T00:44:07.616Z,29.30
2022-08-19T00:46:37.538Z,26.75
2022-08-19T00:49:10.762Z,27.88
2022-08-19T00:51:37.543Z,25.38
2022-08-19T00:54:04.506Z,27.30
2022-08-19T00:56:32.008Z,25.38
2022-08-19T00:58:59.771Z,24.13
2022-08-19T01:01:27.061Z,24.70
2022-08-19T01:03:57.835Z,23.45
2022-08-19T01:06:26.254Z,27.17
2022-08-19T01:08:52.831Z,25.55
2022-08-19T01:11:19.363Z,24.35
2022-08-19T01:13:48.896Z,22.67
2022-08-19T01:16:19.785Z,26.65
2022-08-19T01:18:46.206Z,26.88
2022-08-19T01:21:41.563Z,25.30
2022-08-19T01:24:08.027Z,27.10
2022-08-19T01:26:40.674Z,26.98
2022-08-19T01:29:10.366Z,28.85
2022-08-19T01:31:40.277Z,26.67
2022-08-19T01:34:08.402Z,27.60
2022-08-19T01:36:48.136Z,28.48
2022-08-19T01:39:20.227Z,27.10
2022-08-19T01:41:47.636Z,27.17
2022-08-19T01:44:19.070Z,28.02
2022-08-19T01:46:48.443Z,30.27
2022-08-19T01:49:15.918Z,28.48
2022-08-19T01:51:42.427Z,29.45
2022-08-19T01:54:10.511Z,31.42
2022-08-19T01:56:37.314Z,29.88
2022-08-19T01:59:09.453Z,33.00
2022-08-19T02:01:36.047Z,32.08
2022-08-19T02:04:03.320Z,31.65
2022-08-19T02:06:30.761Z,34.47
2022-08-19T02:08:57.791Z,32.70
2022-08-19T02:11:32.825Z,31.08
2022-08-19T02:14:00.338Z,28.55
2022-08-19T02:16:27.062Z,32.38
2022-08-19T02:18:53.669Z,31.42
2022-08-19T02:21:26.525Z,27.52
2022-08-19T02:23:53.365Z,29.70
2022-08-19T02:26:20.345Z,28.85
2022-08-19T02:28:47.219Z,29.98
2022-08-19T02:31:19.213Z,29.30
2022-08-19T02:33:47.357Z,30.42
2022-08-19T02:36:15.523Z,30.60
2022-08-19T02:38:42.984Z,26.83
2022-08-19T02:41:26.869Z,27.30
2022-08-19T02:44:18.375Z,27.95
2022-08-19T02:46:42.541Z,27.38
2022-08-19T02:49:09.476Z,29.40
2022-08-19T02:51:39.972Z,27.92
2022-08-19T02:54:08.969Z,30.00
2022-08-19T02:56:37.787Z,28.92
2022-08-19T02:59:12.022Z,29.38
2022-08-19T03:01:41.410Z,29.05
2022-08-19T03:04:10.737Z,28.75
2022-08-19T03:06:40.812Z,30.33
2022-08-19T03:09:08.034Z,30.70
2022-08-19T03:11:34.946Z,31.40
2022-08-19T03:14:03.446Z,28.88
2022-08-19T03:16:33.560Z,30.70
2022-08-19T03:21:30.374Z,31.63
2022-08-19T03:24:03.892Z,28.73
2022-08-19T03:26:31.025Z,30.95
2022-08-19T03:29:02.231Z,31.23
2022-08-19T03:31:43.664Z,30.70
2022-08-19T03:34:28.648Z,29.65
2022-08-19T03:36:58.601Z,30.80
2022-08-19T03:39:28.733Z,30.55
2022-08-19T03:42:30.205Z,31.60
2022-08-19T03:44:50.058Z,29.33
2022-08-19T03:47:17.005Z,29.45
2022-08-19T03:49:43.933Z,32.70
2022-08-19T03:52:10.589Z,33.92
2022-08-19T03:54:38.936Z,31.95
2022-08-19T03:57:05.859Z,33.05
2022-08-19T03:59:36.397Z,33.40
2022-08-19T04:02:10.231Z,35.10
2022-08-19T04:04:38.777Z,35.30
2022-08-19T04:07:05.967Z,36.05
2022-08-19T04:09:35.209Z,33.33
2022-08-19T04:12:01.913Z,35.95
2022-08-19T04:14:33.192Z,35.92
2022-08-19T04:17:00.923Z,37.58
2022-08-19T04:19:30.559Z,36.97
2022-08-19T04:21:57.372Z,37.72
2022-08-19T04:24:24.489Z,38.28
2022-08-19T04:26:52.493Z,40.10
2022-08-19T04:29:23.246Z,40.60
2022-08-19T04:31:50.846Z,34.65
2022-08-19T04:34:25.672Z,35.65
2022-08-19T04:36:54.685Z,34.67
2022-08-19T04:39:44.361Z,32.70
2022-08-19T04:42:40.092Z,36.95
2022-08-19T04:45:14.096Z,35.33
2022-08-19T04:47:47.858Z,37.05
2022-08-19T04:50:29.145Z,36.17
2022-08-19T04:52:57.016Z,36.80
2022-08-19T04:55:26.541Z,34.90
2022-08-19T04:57:53.696Z,36.05
2022-08-19T05:00:20.732Z,37.63
2022-08-19T05:02:47.566Z,34.28
2022-08-19T05:05:15.567Z,32.85
2022-08-19T05:07:42.544Z,35.65
2022-08-19T05:10:09.583Z,35.80
2022-08-19T05:12:36.820Z,34.25
2022-08-19T05:15:06.839Z,31.55
2022-08-19T05:17:38.400Z,34.47
2022-08-19T05:20:25.894Z,31.45
2022-08-19T05:22:53.393Z,31.58
2022-08-19T05:25:21.793Z,31.75
2022-08-19T05:27:49.034Z,33.00
2022-08-19T05:30:17.020Z,31.27
2022-08-19T05:32:43.921Z,34.25
2022-08-19T05:35:10.734Z,37.35
2022-08-19T05:37:37.741Z,35.03
2022-08-19T05:40:05.357Z,33.63
2022-08-19T05:42:32.100Z,33.22
2022-08-19T05:44:59.391Z,30.58
2022-08-19T05:47:26.088Z,33.08
2022-08-19T05:49:52.767Z,32.60
2022-08-19T05:52:25.728Z,31.58
2022-08-19T05:54:57.004Z,30.88
2022-08-19T05:57:25.881Z,30.65
2022-08-19T05:59:58.510Z,28.92
2022-08-19T06:02:31.864Z,30.20
2022-08-19T06:04:58.608Z,30.38
2022-08-19T06:07:25.369Z,33.67
2022-08-19T06:09:59.861Z,32.50
2022-08-19T06:12:35.594Z,32.28
2022-08-19T06:15:13.060Z,32.78
2022-08-19T06:17:39.715Z,38.08
2022-08-19T06:20:09.767Z,33.78
2022-08-19T06:22:41.779Z,33.15
2022-08-19T06:25:10.201Z,34.40
2022-08-19T06:27:41.971Z,35.97
2022-08-19T06:30:15.828Z,36.28
2022-08-19T06:32:43.074Z,36.20
2022-08-19T06:35:09.803Z,35.13
2022-08-19T06:37:39.766Z,31.25
2022-08-19T06:40:09.592Z,33.25
2022-08-19T06:42:36.355Z,35.35
2022-08-19T06:45:09.261Z,31.42
2022-08-19T06:47:36.115Z,29.73
2022-08-19T06:50:05.391Z,33.25
2022-08-19T06:52:34.871Z,30.08
2022-08-19T06:55:06.240Z,30.13
2022-08-19T06:57:33.730Z,31.67
2022-08-19T07:00:07.160Z,31.92
2022-08-19T07:02:37.416Z,30.42
2022-08-19T07:05:06.716Z,32.00
2022-08-19T07:07:34.563Z,30.83
2022-08-19T07:10:03.863Z,33.80
2022-08-19T07:12:38.033Z,31.73
2022-08-19T07:15:10.915Z,31.17
2022-08-19T07:17:40.344Z,31.73
2022-08-19T07:20:10.166Z,33.05
2022-08-19T07:22:40.770Z,32.45
2022-08-19T07:25:09.480Z,33.35
2022-08-19T07:27:39.570Z,30.63
2022-08-19T07:30:07.815Z,30.00
2022-08-19T07:32:38.332Z,29.50
2022-08-19T07:35:06.792Z,30.92
2022-08-19T07:37:34.009Z,29.85
2022-08-19T07:40:02.533Z,30.95
2022-08-19T07:42:30.866Z,28.15
2022-08-19T07:44:59.584Z,27.63
2022-08-19T07:47:48.810Z,31.00
2022-08-19T07:50:15.576Z,28.50
2022-08-19T07:52:48.818Z,29.58
2022-08-19T07:55:42.712Z,27.55
2022-08-19T07:58:06.075Z,32.17
2022-08-19T08:00:33.102Z,29.83
2022-08-19T08:02:59.668Z,29.55
2022-08-19T08:05:44.793Z,33.08
2022-08-19T08:08:33.492Z,31.63
2022-08-19T08:11:01.035Z,30.08
2022-08-19T08:13:28.869Z,32.97
2022-08-19T08:15:56.307Z,28.63
2022-08-19T08:18:27.851Z,27.63
2022-08-19T08:20:58.085Z,29.90
2022-08-19T08:23:27.706Z,28.45
2022-08-19T08:25:57.683Z,26.30
2022-08-19T08:28:25.570Z,26.27
2022-08-19T08:30:52.906Z,27.45
2022-08-19T08:33:29.985Z,26.10
2022-08-19T08:36:01.311Z,26.70
2022-08-19T08:38:38.723Z,24.80
2022-08-19T08:41:23.390Z,25.13
2022-08-19T08:43:53.912Z,25.52
2022-08-19T08:46:41.983Z,24.38
2022-08-19T08:49:21.381Z,22.67
2022-08-19T08:51:59.524Z,26.60
2022-08-19T08:54:34.865Z,22.05
2022-08-19T08:57:05.397Z,22.90
2022-08-19T08:59:37.685Z,25.02
2022-08-19T09:02:04.996Z,25.10
2022-08-19T09:04:31.549Z,25.25
2022-08-19T09:07:00.866Z,25.05
2022-08-19T09:09:43.255Z,24.23
2022-08-19T09:12:39.977Z,24.98
2022-08-19T09:15:12.819Z,26.77
2022-08-19T09:17:40.210Z,26.17
2022-08-19T09:20:11.121Z,23.67
2022-08-19T09:22:39.924Z,25.55
2022-08-19T09:25:08.879Z,27.27
2022-08-19T09:27:42.902Z,25.20
2022-08-19T09:30:17.407Z,23.80
2022-08-19T09:32:46.171Z,25.23
2022-08-19T09:35:14.173Z,23.63
2022-08-19T09:37:41.565Z,24.08
2022-08-19T09:40:11.922Z,24.50
2022-08-19T09:42:39.056Z,24.60
2022-08-19T09:45:22.261Z,25.98
2022-08-19T09:47:54.213Z,22.58
2022-08-19T09:50:22.414Z,23.88
2022-08-19T09:52:53.960Z,26.08
2022-08-19T09:55:22.200Z,23.65
2022-08-19T09:57:50.756Z,22.08
2022-08-19T10:00:17.601Z,24.05
2022-08-19T10:02:44.644Z,23.42
2022-08-19T10:05:31.343Z,24.30
2022-08-19T10:07:58.317Z,21.85
2022-08-19T10:10:25.272Z,22.05
2022-08-19T10:12:53.194Z,22.35
2022-08-19T10:15:28.823Z,22.67
2022-08-19T10:17:56.573Z,23.90
2022-08-19T10:20:25.907Z,20.73
2022-08-19T10:22:53.349Z,19.95
2022-08-19T10:25:20.526Z,21.05
2022-08-19T10:27:51.115Z,39.85
2022-08-19T10:30:18.927Z,19.65
2022-08-19T10:32:48.541Z,19.85
2022-08-19T10:35:22.090Z,17.73
2022-08-19T10:37:57.384Z,19.73
2022-08-19T10:40:29.041Z,18.75
2022-08-19T10:42:57.240Z,20.00
2022-08-19T10:45:26.855Z,19.63
2022-08-19T10:47:57.694Z,21.58
2022-08-19T10:53:10.459Z,18.90
2022-08-19T10:55:56.027Z,20.02
2022-08-19T10:58:27.174Z,23.75
2022-08-19T11:00:56.150Z,20.88
2022-08-19T11:03:23.678Z,19.50
2022-08-19T11:06:01.530Z,19.45
2022-08-19T11:08:28.578Z,20.08
2022-08-19T11:10:58.425Z,19.58
2022-08-19T11:13:25.497Z,18.48
2022-08-19T11:16:07.393Z,18.27
2022-08-19T11:18:44.244Z,19.02
2022-08-19T11:21:18.408Z,19.42
2022-08-19T11:23:46.020Z,20.00
2022-08-19T11:26:12.848Z,20.10
2022-08-19T11:28:39.679Z,21.13
2022-08-19T11:31:14.998Z,19.52
2022-08-19T11:33:42.284Z,20.15
2022-08-19T11:36:15.148Z,18.85
2022-08-19T11:38:41.882Z,19.95
2022-08-19T11:41:09.046Z,18.05
2022-08-19T11:43:37.597Z,18.77
2022-08-19T11:46:10.691Z,20.10
2022-08-19T11:48:38.329Z,20.73
2022-08-19T11:51:07.803Z,19.77
2022-08-19T11:53:35.594Z,19.20
2022-08-19T11:56:03.723Z,20.05
2022-08-19T11:58:30.550Z,21.05
2022-08-19T12:00:57.555Z,20.85
2022-08-19T12:03:24.560Z,25.13
2022-08-19T12:05:51.665Z,22.75
2022-08-19T12:08:19.089Z,29.58
2022-08-19T12:10:46.573Z,27.48
2022-08-19T12:13:19.610Z,30.52
2022-08-19T12:15:48.469Z,30.45
2022-08-19T12:18:16.086Z,31.20
2022-08-19T12:20:44.167Z,33.35
2022-08-19T12:23:11.365Z,33.03
2022-08-19T12:25:51.238Z,34.88
2022-08-19T12:28:21.644Z,32.28
2022-08-19T12:30:51.168Z,28.65
2022-08-19T12:33:19.190Z,29.08
2022-08-19T12:35:47.475Z,31.63
2022-08-19T12:38:15.571Z,27.63
2022-08-19T12:40:42.357Z,31.38
2022-08-19T12:43:09.430Z,26.98
2022-08-19T12:45:36.212Z,27.10
2022-08-19T12:48:32.931Z,29.13
2022-08-19T12:50:52.207Z,32.47
2022-08-19T12:53:18.849Z,36.72
2022-08-19T12:55:45.620Z,36.90
2022-08-19T12:58:13.534Z,33.78
2022-08-19T13:00:40.281Z,34.00
2022-08-19T13:03:06.925Z,36.70
2022-08-19T13:05:35.135Z,35.72
2022-08-19T13:08:01.763Z,38.00
2022-08-19T13:10:35.965Z,34.85
2022-08-19T13:13:06.759Z,35.50
2022-08-19T13:15:40.770Z,31.60
2022-08-19T13:18:10.105Z,36.20
2022-08-19T13:20:37.826Z,36.47
2022-08-19T13:23:05.663Z,32.65
2022-08-19T13:25:32.515Z,32.95
2022-08-19T13:28:00.211Z,32.88
2022-08-19T13:30:45.920Z,32.38
2022-08-19T13:33:12.864Z,32.15
2022-08-19T13:35:57.903Z,29.95
2022-08-19T13:38:25.148Z,31.52
2022-08-19T13:40:53.641Z,33.03
2022-08-19T13:43:27.577Z,30.77
2022-08-19T13:45:56.966Z,35.03
2022-08-19T13:48:27.210Z,34.97
2022-08-19T13:50:55.021Z,29.55
2022-08-19T13:53:21.725Z,26.70
2022-08-19T13:55:52.206Z,22.98
2022-08-19T13:58:19.205Z,17.35
2022-08-19T14:00:47.335Z,18.50
2022-08-19T14:03:14.461Z,16.10
2022-08-19T14:05:41.142Z,13.43
2022-08-19T14:08:08.147Z,13.65
2022-08-19T14:10:35.263Z,15.10
2022-08-19T14:13:03.983Z,14.70
2022-08-19T14:15:32.168Z,13.27
2022-08-19T14:17:59.199Z,14.27
2022-08-19T14:20:26.542Z,15.10
2022-08-19T14:22:54.145Z,16.25
2022-08-19T14:25:26.243Z,16.23
2022-08-19T14:27:53.358Z,14.88
2022-08-19T14:30:26.487Z,16.50
2022-08-19T14:32:53.702Z,16.77
2022-08-19T14:35:22.147Z,19.90
2022-08-19T14:37:56.431Z,19.02
2022-08-19T14:40:26.870Z,20.98
2022-08-19T14:43:05.424Z,19.63
2022-08-19T14:45:34.754Z,21.30
2022-08-19T14:48:03.839Z,19.27
2022-08-19T14:50:30.429Z,18.48
2022-08-19T14:53:05.349Z,19.00
2022-08-19T14:55:42.846Z,28.45
2022-08-19T14:58:09.858Z,18.50
2022-08-19T15:00:56.321Z,19.50
2022-08-19T15:03:22.828Z,19.55
2022-08-19T15:05:49.340Z,22.10
2022-08-19T15:08:15.788Z,27.92
2022-08-19T15:10:42.348Z,22.30
2022-08-19T15:13:10.840Z,22.00
2022-08-19T15:15:38.260Z,17.98
2022-08-19T15:18:04.963Z,18.95
2022-08-19T15:20:31.890Z,18.92
2022-08-19T15:23:00.009Z,18.35
2022-08-19T15:25:28.050Z,22.40
2022-08-19T15:27:55.046Z,20.90
2022-08-19T15:30:27.048Z,18.80
2022-08-19T15:32:54.169Z,17.20
2022-08-19T15:35:21.270Z,18.48
2022-08-19T15:37:52.736Z,18.35
2022-08-19T15:40:21.606Z,19.42
2022-08-19T15:42:49.835Z,21.35
2022-08-19T15:45:18.349Z,20.23
2022-08-19T15:47:45.092Z,19.60
2022-08-19T15:50:23.866Z,17.88
2022-08-19T15:53:01.160Z,17.27
2022-08-19T15:55:34.710Z,15.40
2022-08-19T15:58:28.277Z,18.17
2022-08-19T16:01:23.591Z,18.92
2022-08-19T16:04:13.808Z,17.88
2022-08-19T16:06:45.430Z,18.58
2022-08-19T16:09:13.084Z,19.95
2022-08-19T16:11:39.910Z,18.50
2022-08-19T16:14:09.272Z,19.00
2022-08-19T16:16:36.865Z,20.85
2022-08-19T16:19:10.196Z,18.40
2022-08-19T16:21:41.503Z,20.75
2022-08-19T16:24:10.249Z,20.73
2022-08-19T16:26:36.905Z,20.50
2022-08-19T16:29:08.966Z,19.55
2022-08-19T16:31:39.898Z,19.75
2022-08-19T16:34:06.696Z,18.58
2022-08-19T16:36:34.057Z,20.98
2022-08-19T16:39:01.659Z,19.80
2022-08-19T16:41:28.998Z,18.95
2022-08-19T16:43:56.031Z,20.60
2022-08-19T16:46:23.419Z,21.02
2022-08-19T16:48:53.652Z,20.00
2022-08-19T16:51:20.381Z,19.95
2022-08-19T16:53:46.911Z,24.23
2022-08-19T16:56:13.685Z,20.45
2022-08-19T16:58:40.961Z,20.58
2022-08-19T17:01:10.321Z,19.38
2022-08-19T17:03:39.740Z,18.80
2022-08-19T17:06:20.813Z,18.63
2022-08-19T17:08:50.123Z,20.52
2022-08-19T17:11:19.186Z,18.45
2022-08-19T17:13:47.964Z,17.60
2022-08-19T17:16:17.118Z,13.30
2022-08-19T17:18:45.062Z,12.88
2022-08-19T17:21:13.238Z,11.85
2022-08-19T17:23:42.845Z,9.90
2022-08-19T17:26:16.984Z,10.57
2022-08-19T17:28:49.652Z,12.10
2022-08-19T17:31:18.067Z,12.07
2022-08-19T17:33:48.604Z,11.30
2022-08-19T17:36:22.208Z,13.32
2022-08-19T17:38:49.793Z,13.88
2022-08-19T17:41:17.091Z,14.73
2022-08-19T17:43:44.358Z,13.25
2022-08-19T17:46:18.213Z,12.60
2022-08-19T17:48:52.152Z,17.50
2022-08-19T17:51:42.400Z,13.98
2022-08-19T17:54:13.510Z,13.38
2022-08-19T17:56:42.448Z,11.75
2022-08-19T17:59:14.035Z,12.60
2022-08-19T18:01:52.180Z,12.63
2022-08-19T18:04:23.525Z,12.18
2022-08-19T18:06:53.536Z,12.07
2022-08-19T18:09:41.324Z,11.95
2022-08-19T18:12:11.193Z,15.60
2022-08-19T18:14:41.619Z,14.73
2022-08-19T18:17:13.486Z,11.27
2022-08-19T18:19:43.271Z,14.55
2022-08-19T18:22:33.633Z,18.35
2022-08-19T18:27:28.176Z,14.88
2022-08-19T18:29:58.010Z,13.80
2022-08-19T18:32:26.626Z,12.05
2022-08-19T18:34:54.602Z,12.93
2022-08-19T18:37:21.651Z,15.32
2022-08-19T18:40:06.907Z,14.55
2022-08-19T18:42:52.103Z,15.60
2022-08-19T18:45:37.593Z,15.27
2022-08-19T18:48:26.544Z,16.15
2022-08-19T18:50:55.153Z,13.13
2022-08-19T18:53:21.692Z,17.38
2022-08-19T18:55:53.820Z,14.00
2022-08-19T18:58:25.932Z,13.80
2022-08-19T19:00:54.514Z,16.58
2022-08-19T19:03:21.111Z,14.43
2022-08-19T19:05:48.735Z,13.05
2022-08-19T19:08:15.514Z,13.88
2022-08-19T19:10:42.277Z,13.98
2022-08-19T19:13:09.081Z,14.45
2022-08-19T19:15:36.991Z,12.70
2022-08-19T19:18:03.884Z,13.40
2022-08-19T19:20:36.500Z,13.02
2022-08-19T19:23:04.100Z,12.70
2022-08-19T19:25:50.373Z,12.82
2022-08-19T19:28:25.291Z,12.10
2022-08-19T19:30:53.873Z,16.50
2022-08-19T19:33:20.543Z,13.00
2022-08-19T19:35:47.317Z,11.15
2022-08-19T19:38:14.001Z,12.25
2022-08-19T19:40:40.619Z,12.45
2022-08-19T19:43:10.603Z,13.38
2022-08-19T19:45:38.310Z,14.43
2022-08-19T19:48:05.988Z,15.80
2022-08-19T19:50:32.611Z,14.38
2022-08-19T19:53:00.553Z,14.50
2022-08-19T19:55:29.233Z,17.10
2022-08-19T19:57:57.668Z,15.18
2022-08-19T20:00:25.431Z,15.18
2022-08-19T20:02:55.374Z,16.70
2022-08-19T20:05:23.067Z,16.83
2022-08-19T20:08:10.194Z,14.65
2022-08-19T20:10:37.673Z,15.63
2022-08-19T20:13:05.245Z,15.40
2022-08-19T20:15:32.291Z,15.43
2022-08-19T20:18:04.158Z,16.40
2022-08-19T20:20:31.698Z,14.68
2022-08-19T20:22:58.662Z,15.52
2022-08-19T20:25:25.289Z,15.15
2022-08-19T20:27:52.053Z,14.98
2022-08-19T20:30:21.654Z,26.02
2022-08-19T20:32:50.542Z,19.58
2022-08-19T20:35:19.853Z,24.25
2022-08-19T20:37:46.626Z,30.90
2022-08-19T20:40:14.901Z,17.83
2022-08-19T20:42:43.223Z,15.48
2022-08-19T20:45:21.561Z,12.48
2022-08-19T20:47:58.939Z,14.18
2022-08-19T20:50:26.026Z,12.95
2022-08-19T20:52:56.562Z,11.95
2022-08-19T20:55:23.240Z,11.00
2022-08-19T20:57:49.875Z,12.68
2022-08-19T21:00:16.602Z,12.90
2022-08-19T21:02:43.104Z,12.07
2022-08-19T21:05:09.673Z,14.20
2022-08-19T21:07:39.017Z,10.77
2022-08-19T21:10:07.121Z,11.50
2022-08-19T21:12:33.908Z,12.38
2022-08-19T21:15:01.140Z,11.27
2022-08-19T21:17:28.221Z,14.77
2022-08-19T21:19:56.078Z,16.48
2022-08-19T21:22:31.282Z,17.17
2022-08-19T21:24:58.525Z,14.35
2022-08-19T21:27:31.698Z,11.63
2022-08-19T21:30:02.147Z,11.48
2022-08-19T21:34:57.602Z,11.77
2022-08-19T21:37:26.156Z,10.35
2022-08-19T21:39:56.970Z,12.35
2022-08-19T21:42:24.246Z,11.45
2022-08-19T21:44:54.495Z,10.93
2022-08-19T21:47:21.376Z,10.65
2022-08-19T21:49:48.582Z,11.90
2022-08-19T21:52:22.044Z,12.23
2022-08-19T21:54:48.862Z,13.45
2022-08-19T21:57:15.971Z,12.70
2022-08-19T21:59:44.169Z,11.32
2022-08-19T22:02:20.367Z,12.93
2022-08-19T22:04:49.824Z,12.50
2022-08-19T22:07:16.522Z,11.85
2022-08-19T22:09:45.529Z,10.98
2022-08-19T22:12:31.674Z,11.77
2022-08-19T22:15:00.116Z,13.02
2022-08-19T22:17:29.986Z,12.00
2022-08-19T22:19:57.374Z,12.68
2022-08-19T22:22:27.669Z,11.27
2022-08-19T22:25:00.048Z,14.15
2022-08-19T22:27:26.705Z,12.00
2022-08-19T22:29:53.428Z,12.02
2022-08-19T22:32:28.046Z,13.95
2022-08-19T22:34:57.694Z,11.45
2022-08-19T22:37:24.484Z,11.52
2022-08-19T22:39:51.106Z,12.93
2022-08-19T22:42:20.209Z,11.75
2022-08-19T22:44:46.783Z,12.75
2022-08-19T22:47:13.637Z,14.32
2022-08-19T22:49:40.415Z,13.52
2022-08-19T22:52:18.308Z,14.23
2022-08-19T22:54:54.010Z,12.98
2022-08-19T22:57:21.897Z,13.77
2022-08-19T22:59:50.541Z,14.93
2022-08-19T23:02:31.318Z,15.20
2022-08-19T23:05:02.467Z,17.70
2022-08-19T23:07:29.554Z,15.85
2022-08-19T23:09:56.438Z,14.55
2022-08-19T23:12:30.589Z,17.02
2022-08-19T23:15:12.964Z,17.02
2022-08-19T23:17:40.861Z,16.95
2022-08-19T23:20:14.292Z,15.90
2022-08-19T23:22:42.856Z,15.80
2022-08-19T23:25:13.151Z,15.15
2022-08-19T23:27:58.462Z,18.08
2022-08-19T23:30:27.603Z,14.75
2022-08-19T23:33:12.353Z,16.92
2022-08-19T23:35:41.165Z,19.90
2022-08-19T23:38:09.276Z,17.45
2022-08-19T23:40:38.743Z,18.08
2022-08-19T23:43:08.209Z,16.00
2022-08-19T23:45:40.758Z,14.27
2022-08-19T23:48:18.250Z,15.77
2022-08-19T23:50:45.134Z,15.88
2022-08-19T23:53:14.100Z,16.80
2022-08-19T23:55:44.213Z,16.42
2022-08-19T23:58:16.249Z,15.07
